Liverpool, Texas
Current Conditions -  °F | °C
As of 7:53 AM on Monday 20 Oct 2014 (Local Time) from KLVJ Reporting Station
Clear Clear  
Wind Chill: 64°   Ceiling: Unl
Heat Index: 64°   Visibility: 9mi
Dew Point: 61°   Wind: 7mph
Humidity: 90%   Direction: 50°NE
Pressure: 30.03"   Gusts: NA
Location:  29.29°N, 95.28°W
Report Text: KLVJ 201253Z AUTO 05006KT 9SM CLR 18/16 A3003 RMK AO2 SLP169 T01780161
Loading
Personal Weather Stations






























Interactive Weather Map
Tropical Storm Tracking
New forecast layout! Learn more

10-Day Weather Forecast

Advertisements
Track Severe Weather on mobile